sensor_id;sensor_type;location;lat;lon;timestamp;temperature;humidity
26947;DHT22;14501;52.282;10.560;2022-08-14T00:01:07;19.60;99.90
26947;DHT22;14501;52.282;10.560;2022-08-14T00:03:33;19.60;99.90
26947;DHT22;14501;52.282;10.560;2022-08-14T00:06:01;19.60;99.90
26947;DHT22;14501;52.282;10.560;2022-08-14T00:08:27;19.60;99.90
26947;DHT22;14501;52.282;10.560;2022-08-14T00:10:53;19.60;99.90
26947;DHT22;14501;52.282;10.560;2022-08-14T00:13:20;19.50;99.90
26947;DHT22;14501;52.282;10.560;2022-08-14T00:15:49;19.50;99.90
26947;DHT22;14501;52.282;10.560;2022-08-14T00:18:19;19.50;99.90
26947;DHT22;14501;52.282;10.560;2022-08-14T00:20:46;19.50;99.90
26947;DHT22;14501;52.282;10.560;2022-08-14T00:23:13;19.50;99.90
26947;DHT22;14501;52.282;10.560;2022-08-14T00:25:39;19.50;99.90
26947;DHT22;14501;52.282;10.560;2022-08-14T00:28:07;19.50;99.90
26947;DHT22;14501;52.282;10.560;2022-08-14T00:30:34;19.50;99.90
26947;DHT22;14501;52.282;10.560;2022-08-14T00:33:01;19.50;99.90
26947;DHT22;14501;52.282;10.560;2022-08-14T00:35:27;19.60;99.90
26947;DHT22;14501;52.282;10.560;2022-08-14T00:37:52;19.60;99.90
26947;DHT22;14501;52.282;10.560;2022-08-14T00:40:19;19.50;99.90
26947;DHT22;14501;52.282;10.560;2022-08-14T00:42:45;19.50;99.90
26947;DHT22;14501;52.282;10.560;2022-08-14T00:45:13;19.40;99.90
26947;DHT22;14501;52.282;10.560;2022-08-14T00:47:42;19.40;99.90
26947;DHT22;14501;52.282;10.560;2022-08-14T00:50:09;19.40;99.90
26947;DHT22;14501;52.282;10.560;2022-08-14T00:52:36;19.30;99.90
26947;DHT22;14501;52.282;10.560;2022-08-14T00:55:04;19.30;99.90
26947;DHT22;14501;52.282;10.560;2022-08-14T00:57:32;19.30;99.90
26947;DHT22;14501;52.282;10.560;2022-08-14T00:59:59;19.30;99.90
26947;DHT22;14501;52.282;10.560;2022-08-14T01:02:28;19.20;99.90
26947;DHT22;14501;52.282;10.560;2022-08-14T01:04:57;19.20;99.90
26947;DHT22;14501;52.282;10.560;2022-08-14T01:07:25;19.20;99.90
26947;DHT22;14501;52.282;10.560;2022-08-14T01:09:53;19.20;99.90
26947;DHT22;14501;52.282;10.560;2022-08-14T01:12:20;19.20;99.90
26947;DHT22;14501;52.282;10.560;2022-08-14T01:14:46;19.10;99.90
26947;DHT22;14501;52.282;10.560;2022-08-14T01:17:16;19.10;99.90
26947;DHT22;14501;52.282;10.560;2022-08-14T01:19:41;19.10;99.90
26947;DHT22;14501;52.282;10.560;2022-08-14T01:22:25;19.00;99.90
26947;DHT22;14501;52.282;10.560;2022-08-14T01:24:51;19.00;99.90
26947;DHT22;14501;52.282;10.560;2022-08-14T01:27:19;18.90;99.90
26947;DHT22;14501;52.282;10.560;2022-08-14T01:29:46;18.90;99.90
26947;DHT22;14501;52.282;10.560;2022-08-14T01:32:12;18.90;99.90
26947;DHT22;14501;52.282;10.560;2022-08-14T01:34:38;18.90;99.90
26947;DHT22;14501;52.282;10.560;2022-08-14T01:37:04;18.90;99.90
26947;DHT22;14501;52.282;10.560;2022-08-14T01:39:31;18.90;99.90
26947;DHT22;14501;52.282;10.560;2022-08-14T01:41:57;19.00;99.90
26947;DHT22;14501;52.282;10.560;2022-08-14T01:44:27;19.00;99.90
26947;DHT22;14501;52.282;10.560;2022-08-14T01:46:57;19.10;99.90
26947;DHT22;14501;52.282;10.560;2022-08-14T01:49:23;19.10;99.90
26947;DHT22;14501;52.282;10.560;2022-08-14T01:51:49;19.20;99.90
26947;DHT22;14501;52.282;10.560;2022-08-14T01:54:22;19.20;99.90
26947;DHT22;14501;52.282;10.560;2022-08-14T01:56:53;19.20;99.90
26947;DHT22;14501;52.282;10.560;2022-08-14T01:59:26;19.20;99.90
26947;DHT22;14501;52.282;10.560;2022-08-14T02:01:58;19.20;99.90
26947;DHT22;14501;52.282;10.560;2022-08-14T02:04:26;19.30;99.90
26947;DHT22;14501;52.282;10.560;2022-08-14T02:06:52;19.10;99.90
26947;DHT22;14501;52.282;10.560;2022-08-14T02:09:18;19.20;99.90
26947;DHT22;14501;52.282;10.560;2022-08-14T02:11:46;19.30;99.90
26947;DHT22;14501;52.282;10.560;2022-08-14T02:14:13;19.30;99.90
26947;DHT22;14501;52.282;10.560;2022-08-14T02:16:41;19.30;99.90
26947;DHT22;14501;52.282;10.560;2022-08-14T02:19:09;19.30;99.90
26947;DHT22;14501;52.282;10.560;2022-08-14T02:21:36;19.30;99.90
26947;DHT22;14501;52.282;10.560;2022-08-14T02:24:04;19.20;99.90
26947;DHT22;14501;52.282;10.560;2022-08-14T02:26:35;19.20;99.90
26947;DHT22;14501;52.282;10.560;2022-08-14T02:31:35;19.20;99.90
26947;DHT22;14501;52.282;10.560;2022-08-14T02:34:06;19.30;99.90
26947;DHT22;14501;52.282;10.560;2022-08-14T02:36:36;19.30;99.90
26947;DHT22;14501;52.282;10.560;2022-08-14T02:39:04;19.20;99.90
26947;DHT22;14501;52.282;10.560;2022-08-14T02:41:30;19.20;99.90
26947;DHT22;14501;52.282;10.560;2022-08-14T02:43:57;19.20;99.90
26947;DHT22;14501;52.282;10.560;2022-08-14T02:46:22;19.20;99.90
26947;DHT22;14501;52.282;10.560;2022-08-14T02:48:48;19.20;99.90
26947;DHT22;14501;52.282;10.560;2022-08-14T02:51:14;19.10;99.90
26947;DHT22;14501;52.282;10.560;2022-08-14T02:53:42;19.10;99.90
26947;DHT22;14501;52.282;10.560;2022-08-14T02:56:12;19.10;99.90
26947;DHT22;14501;52.282;10.560;2022-08-14T02:58:45;19.10;99.90
26947;DHT22;14501;52.282;10.560;2022-08-14T03:01:13;19.10;99.90
26947;DHT22;14501;52.282;10.560;2022-08-14T03:03:40;19.10;99.90
26947;DHT22;14501;52.282;10.560;2022-08-14T03:06:07;19.10;99.90
26947;DHT22;14501;52.282;10.560;2022-08-14T03:08:36;19.10;99.90
26947;DHT22;14501;52.282;10.560;2022-08-14T03:11:07;19.10;99.90
26947;DHT22;14501;52.282;10.560;2022-08-14T03:13:41;19.10;99.90
26947;DHT22;14501;52.282;10.560;2022-08-14T03:16:09;19.00;99.90
26947;DHT22;14501;52.282;10.560;2022-08-14T03:18:37;19.00;99.90
26947;DHT22;14501;52.282;10.560;2022-08-14T03:21:12;18.90;99.90
26947;DHT22;14501;52.282;10.560;2022-08-14T03:23:43;18.80;99.90
26947;DHT22;14501;52.282;10.560;2022-08-14T03:26:15;18.80;99.90
26947;DHT22;14501;52.282;10.560;2022-08-14T03:28:43;18.80;99.90
26947;DHT22;14501;52.282;10.560;2022-08-14T03:31:10;18.80;99.90
26947;DHT22;14501;52.282;10.560;2022-08-14T03:33:36;18.70;99.90
26947;DHT22;14501;52.282;10.560;2022-08-14T03:36:06;18.60;99.90
26947;DHT22;14501;52.282;10.560;2022-08-14T03:38:37;18.60;99.90
26947;DHT22;14501;52.282;10.560;2022-08-14T03:41:12;18.50;99.90
26947;DHT22;14501;52.282;10.560;2022-08-14T03:43:42;18.50;99.90
26947;DHT22;14501;52.282;10.560;2022-08-14T03:46:09;18.40;99.90
26947;DHT22;14501;52.282;10.560;2022-08-14T03:48:36;18.30;99.90
26947;DHT22;14501;52.282;10.560;2022-08-14T03:51:04;18.30;99.90
26947;DHT22;14501;52.282;10.560;2022-08-14T03:53:32;18.20;99.90
26947;DHT22;14501;52.282;10.560;2022-08-14T03:56:00;18.10;99.90
26947;DHT22;14501;52.282;10.560;2022-08-14T03:58:26;18.10;99.90
26947;DHT22;14501;52.282;10.560;2022-08-14T04:00:53;18.10;99.90
26947;DHT22;14501;52.282;10.560;2022-08-14T04:03:18;18.10;99.90
26947;DHT22;14501;52.282;10.560;2022-08-14T04:05:46;18.00;99.90
26947;DHT22;14501;52.282;10.560;2022-08-14T04:08:11;17.90;99.90
26947;DHT22;14501;52.282;10.560;2022-08-14T04:10:37;18.00;99.90
26947;DHT22;14501;52.282;10.560;2022-08-14T04:13:03;17.90;99.90
26947;DHT22;14501;52.282;10.560;2022-08-14T04:15:34;17.90;99.90
26947;DHT22;14501;52.282;10.560;2022-08-14T04:18:06;17.90;99.90
26947;DHT22;14501;52.282;10.560;2022-08-14T04:20:34;17.90;99.90
26947;DHT22;14501;52.282;10.560;2022-08-14T04:22:59;17.90;99.90
26947;DHT22;14501;52.282;10.560;2022-08-14T04:25:26;18.00;99.90
26947;DHT22;14501;52.282;10.560;2022-08-14T04:27:51;18.00;99.90
26947;DHT22;14501;52.282;10.560;2022-08-14T04:30:19;18.10;99.90
26947;DHT22;14501;52.282;10.560;2022-08-14T04:32:44;18.20;99.90
26947;DHT22;14501;52.282;10.560;2022-08-14T04:35:10;18.20;99.90
26947;DHT22;14501;52.282;10.560;2022-08-14T04:37:36;18.30;99.90
26947;DHT22;14501;52.282;10.560;2022-08-14T04:40:20;18.30;99.90
26947;DHT22;14501;52.282;10.560;2022-08-14T04:43:04;18.40;99.90
26947;DHT22;14501;52.282;10.560;2022-08-14T04:45:49;18.50;99.90
26947;DHT22;14501;52.282;10.560;2022-08-14T04:48:16;18.50;99.90
26947;DHT22;14501;52.282;10.560;2022-08-14T04:50:47;18.60;99.90
26947;DHT22;14501;52.282;10.560;2022-08-14T04:53:15;18.60;99.90
26947;DHT22;14501;52.282;10.560;2022-08-14T04:55:43;18.60;99.90
26947;DHT22;14501;52.282;10.560;2022-08-14T04:58:13;18.60;99.90
26947;DHT22;14501;52.282;10.560;2022-08-14T05:00:39;18.60;99.90
26947;DHT22;14501;52.282;10.560;2022-08-14T05:03:06;18.60;99.90
26947;DHT22;14501;52.282;10.560;2022-08-14T05:05:32;18.60;99.90
26947;DHT22;14501;52.282;10.560;2022-08-14T05:08:07;18.70;99.90
26947;DHT22;14501;52.282;10.560;2022-08-14T05:10:39;18.80;99.90
26947;DHT22;14501;52.282;10.560;2022-08-14T05:13:06;18.90;99.90
26947;DHT22;14501;52.282;10.560;2022-08-14T05:15:34;19.00;99.90
26947;DHT22;14501;52.282;10.560;2022-08-14T05:18:08;19.20;99.90
26947;DHT22;14501;52.282;10.560;2022-08-14T05:20:39;19.40;99.90
26947;DHT22;14501;52.282;10.560;2022-08-14T05:23:05;19.60;99.90
26947;DHT22;14501;52.282;10.560;2022-08-14T05:25:33;19.80;99.90
26947;DHT22;14501;52.282;10.560;2022-08-14T05:28:11;20.10;99.90
26947;DHT22;14501;52.282;10.560;2022-08-14T05:30:37;20.40;99.90
26947;DHT22;14501;52.282;10.560;2022-08-14T05:33:04;20.50;99.90
26947;DHT22;14501;52.282;10.560;2022-08-14T05:35:31;20.60;99.90
26947;DHT22;14501;52.282;10.560;2022-08-14T05:37:58;20.70;99.90
26947;DHT22;14501;52.282;10.560;2022-08-14T05:40:24;20.70;99.90
26947;DHT22;14501;52.282;10.560;2022-08-14T05:42:50;20.80;99.90
26947;DHT22;14501;52.282;10.560;2022-08-14T05:45:15;20.80;99.90
26947;DHT22;14501;52.282;10.560;2022-08-14T05:47:41;20.90;99.90
26947;DHT22;14501;52.282;10.560;2022-08-14T05:50:12;20.90;99.90
26947;DHT22;14501;52.282;10.560;2022-08-14T05:52:38;21.10;99.90
26947;DHT22;14501;52.282;10.560;2022-08-14T05:55:06;21.10;99.90
26947;DHT22;14501;52.282;10.560;2022-08-14T05:57:32;21.20;99.90
26947;DHT22;14501;52.282;10.560;2022-08-14T05:59:58;21.40;99.90
26947;DHT22;14501;52.282;10.560;2022-08-14T06:02:23;21.50;99.90
26947;DHT22;14501;52.282;10.560;2022-08-14T06:04:49;21.80;99.90
26947;DHT22;14501;52.282;10.560;2022-08-14T06:07:15;22.60;99.90
26947;DHT22;14501;52.282;10.560;2022-08-14T06:09:40;24.70;99.90
26947;DHT22;14501;52.282;10.560;2022-08-14T06:12:07;27.50;99.90
26947;DHT22;14501;52.282;10.560;2022-08-14T06:14:33;29.90;99.90
26947;DHT22;14501;52.282;10.560;2022-08-14T06:16:59;32.50;99.90
26947;DHT22;14501;52.282;10.560;2022-08-14T06:19:25;34.70;99.50
26947;DHT22;14501;52.282;10.560;2022-08-14T06:21:50;36.30;95.00
26947;DHT22;14501;52.282;10.560;2022-08-14T06:24:16;37.50;91.40
26947;DHT22;14501;52.282;10.560;2022-08-14T06:26:43;37.90;88.10
26947;DHT22;14501;52.282;10.560;2022-08-14T06:29:09;38.60;84.90
26947;DHT22;14501;52.282;10.560;2022-08-14T06:31:36;39.30;82.20
26947;DHT22;14501;52.282;10.560;2022-08-14T06:34:02;39.80;80.60
26947;DHT22;14501;52.282;10.560;2022-08-14T06:36:27;40.80;77.60
26947;DHT22;14501;52.282;10.560;2022-08-14T06:38:53;41.60;73.90
26947;DHT22;14501;52.282;10.560;2022-08-14T06:41:20;42.10;71.80
26947;DHT22;14501;52.282;10.560;2022-08-14T06:43:47;42.70;70.90
26947;DHT22;14501;52.282;10.560;2022-08-14T06:46:13;42.80;67.90
26947;DHT22;14501;52.282;10.560;2022-08-14T06:48:39;43.10;67.90
26947;DHT22;14501;52.282;10.560;2022-08-14T06:51:04;42.90;67.00
26947;DHT22;14501;52.282;10.560;2022-08-14T06:53:30;43.10;66.00
26947;DHT22;14501;52.282;10.560;2022-08-14T06:55:56;43.10;65.00
26947;DHT22;14501;52.282;10.560;2022-08-14T06:58:22;43.60;64.60
26947;DHT22;14501;52.282;10.560;2022-08-14T07:00:48;43.80;63.70
26947;DHT22;14501;52.282;10.560;2022-08-14T07:03:32;44.10;62.60
26947;DHT22;14501;52.282;10.560;2022-08-14T07:06:17;44.40;62.50
26947;DHT22;14501;52.282;10.560;2022-08-14T07:08:43;44.80;61.40
26947;DHT22;14501;52.282;10.560;2022-08-14T07:11:10;44.30;61.30
26947;DHT22;14501;52.282;10.560;2022-08-14T07:13:36;43.30;62.20
26947;DHT22;14501;52.282;10.560;2022-08-14T07:16:02;41.50;64.40
26947;DHT22;14501;52.282;10.560;2022-08-14T07:18:30;39.60;67.90
26947;DHT22;14501;52.282;10.560;2022-08-14T07:20:58;38.00;72.10
26947;DHT22;14501;52.282;10.560;2022-08-14T07:23:24;36.90;73.70
26947;DHT22;14501;52.282;10.560;2022-08-14T07:25:53;36.60;74.80
26947;DHT22;14501;52.282;10.560;2022-08-14T07:28:23;37.00;74.90
26947;DHT22;14501;52.282;10.560;2022-08-14T07:30:55;38.40;72.60
26947;DHT22;14501;52.282;10.560;2022-08-14T07:33:23;40.10;69.50
26947;DHT22;14501;52.282;10.560;2022-08-14T07:35:49;41.70;66.80
26947;DHT22;14501;52.282;10.560;2022-08-14T07:38:19;42.90;63.30
26947;DHT22;14501;52.282;10.560;2022-08-14T07:40:46;43.70;62.30
26947;DHT22;14501;52.282;10.560;2022-08-14T07:43:12;43.80;61.70
26947;DHT22;14501;52.282;10.560;2022-08-14T07:45:39;44.30;61.80
26947;DHT22;14501;52.282;10.560;2022-08-14T07:48:05;44.90;59.70
26947;DHT22;14501;52.282;10.560;2022-08-14T07:50:32;45.60;59.40
26947;DHT22;14501;52.282;10.560;2022-08-14T07:52:58;45.60;58.30
26947;DHT22;14501;52.282;10.560;2022-08-14T07:55:24;45.40;58.20
26947;DHT22;14501;52.282;10.560;2022-08-14T07:57:51;45.50;58.80
26947;DHT22;14501;52.282;10.560;2022-08-14T08:00:21;46.00;57.90
26947;DHT22;14501;52.282;10.560;2022-08-14T08:02:49;46.00;56.30
26947;DHT22;14501;52.282;10.560;2022-08-14T08:05:17;46.00;56.70
26947;DHT22;14501;52.282;10.560;2022-08-14T08:07:45;46.40;56.30
26947;DHT22;14501;52.282;10.560;2022-08-14T08:10:14;46.10;56.80
26947;DHT22;14501;52.282;10.560;2022-08-14T08:15:40;46.50;56.20
26947;DHT22;14501;52.282;10.560;2022-08-14T08:18:07;47.20;55.00
26947;DHT22;14501;52.282;10.560;2022-08-14T08:20:37;47.40;55.00
26947;DHT22;14501;52.282;10.560;2022-08-14T08:23:05;47.30;54.90
26947;DHT22;14501;52.282;10.560;2022-08-14T08:25:34;47.40;54.80
26947;DHT22;14501;52.282;10.560;2022-08-14T08:28:04;47.50;54.30
26947;DHT22;14501;52.282;10.560;2022-08-14T08:30:33;47.90;54.00
26947;DHT22;14501;52.282;10.560;2022-08-14T08:33:00;48.40;53.80
26947;DHT22;14501;52.282;10.560;2022-08-14T08:35:29;48.10;53.30
26947;DHT22;14501;52.282;10.560;2022-08-14T08:38:02;48.20;52.90
26947;DHT22;14501;52.282;10.560;2022-08-14T08:40:33;47.90;52.70
26947;DHT22;14501;52.282;10.560;2022-08-14T08:43:06;46.10;54.90
26947;DHT22;14501;52.282;10.560;2022-08-14T08:45:35;43.20;56.80
26947;DHT22;14501;52.282;10.560;2022-08-14T08:48:02;41.00;60.50
26947;DHT22;14501;52.282;10.560;2022-08-14T08:50:37;39.20;64.30
26947;DHT22;14501;52.282;10.560;2022-08-14T08:53:06;38.30;66.40
26947;DHT22;14501;52.282;10.560;2022-08-14T08:55:38;37.60;67.80
26947;DHT22;14501;52.282;10.560;2022-08-14T08:58:07;37.20;68.40
26947;DHT22;14501;52.282;10.560;2022-08-14T09:00:37;37.10;69.00
26947;DHT22;14501;52.282;10.560;2022-08-14T09:03:05;36.80;70.40
26947;DHT22;14501;52.282;10.560;2022-08-14T09:05:35;37.60;67.80
26947;DHT22;14501;52.282;10.560;2022-08-14T09:08:16;39.30;65.70
26947;DHT22;14501;52.282;10.560;2022-08-14T09:10:42;40.30;63.50
26947;DHT22;14501;52.282;10.560;2022-08-14T09:13:08;40.50;63.70
26947;DHT22;14501;52.282;10.560;2022-08-14T09:15:38;41.10;60.90
26947;DHT22;14501;52.282;10.560;2022-08-14T09:18:05;41.80;60.60
26947;DHT22;14501;52.282;10.560;2022-08-14T09:20:31;41.10;61.10
26947;DHT22;14501;52.282;10.560;2022-08-14T09:22:58;41.90;60.40
26947;DHT22;14501;52.282;10.560;2022-08-14T09:25:24;43.10;58.80
26947;DHT22;14501;52.282;10.560;2022-08-14T09:27:49;43.70;58.10
26947;DHT22;14501;52.282;10.560;2022-08-14T09:30:15;44.30;57.10
26947;DHT22;14501;52.282;10.560;2022-08-14T09:47:01;45.00;55.70
26947;DHT22;14501;52.282;10.560;2022-08-14T09:49:32;43.80;58.10
26947;DHT22;14501;52.282;10.560;2022-08-14T09:52:09;43.90;57.70
26947;DHT22;14501;52.282;10.560;2022-08-14T09:54:43;44.30;57.80
26947;DHT22;14501;52.282;10.560;2022-08-14T09:57:10;44.10;57.00
26947;DHT22;14501;52.282;10.560;2022-08-14T09:59:47;44.30;56.60
26947;DHT22;14501;52.282;10.560;2022-08-14T10:05:07;44.70;56.30
26947;DHT22;14501;52.282;10.560;2022-08-14T10:07:54;45.10;55.70
26947;DHT22;14501;52.282;10.560;2022-08-14T10:12:57;45.30;54.80
26947;DHT22;14501;52.282;10.560;2022-08-14T10:15:24;45.10;55.00
26947;DHT22;14501;52.282;10.560;2022-08-14T10:18:09;45.10;55.10
26947;DHT22;14501;52.282;10.560;2022-08-14T10:20:39;45.20;55.90
26947;DHT22;14501;52.282;10.560;2022-08-14T10:23:17;44.90;55.00
26947;DHT22;14501;52.282;10.560;2022-08-14T10:25:49;44.90;56.00
26947;DHT22;14501;52.282;10.560;2022-08-14T10:28:20;44.30;55.20
26947;DHT22;14501;52.282;10.560;2022-08-14T10:30:48;43.70;56.30
26947;DHT22;14501;52.282;10.560;2022-08-14T10:33:31;43.70;56.50
26947;DHT22;14501;52.282;10.560;2022-08-14T10:35:59;43.50;57.20
26947;DHT22;14501;52.282;10.560;2022-08-14T10:38:34;42.00;57.50
26947;DHT22;14501;52.282;10.560;2022-08-14T10:43:38;39.30;61.60
26947;DHT22;14501;52.282;10.560;2022-08-14T10:46:14;38.60;62.60
26947;DHT22;14501;52.282;10.560;2022-08-14T10:48:41;38.30;62.80
26947;DHT22;14501;52.282;10.560;2022-08-14T10:51:08;37.80;64.40
26947;DHT22;14501;52.282;10.560;2022-08-14T10:53:35;37.30;64.50
26947;DHT22;14501;52.282;10.560;2022-08-14T10:56:09;36.50;64.70
26947;DHT22;14501;52.282;10.560;2022-08-14T10:58:35;36.00;66.70
26947;DHT22;14501;52.282;10.560;2022-08-14T11:01:02;35.70;66.40
26947;DHT22;14501;52.282;10.560;2022-08-14T11:03:38;35.50;66.60
26947;DHT22;14501;52.282;10.560;2022-08-14T11:06:16;35.30;67.30
26947;DHT22;14501;52.282;10.560;2022-08-14T11:08:45;35.00;67.80
26947;DHT22;14501;52.282;10.560;2022-08-14T11:11:11;35.00;68.40
26947;DHT22;14501;52.282;10.560;2022-08-14T11:13:40;34.60;70.30
26947;DHT22;14501;52.282;10.560;2022-08-14T11:16:09;34.60;70.40
26947;DHT22;14501;52.282;10.560;2022-08-14T11:18:36;34.40;69.50
26947;DHT22;14501;52.282;10.560;2022-08-14T11:21:02;34.20;70.90
26947;DHT22;14501;52.282;10.560;2022-08-14T11:23:38;34.20;70.20
26947;DHT22;14501;52.282;10.560;2022-08-14T11:26:04;34.00;69.90
26947;DHT22;14501;52.282;10.560;2022-08-14T11:28:38;33.40;70.50
26947;DHT22;14501;52.282;10.560;2022-08-14T11:31:05;33.30;71.70
26947;DHT22;14501;52.282;10.560;2022-08-14T11:33:33;33.40;71.60
26947;DHT22;14501;52.282;10.560;2022-08-14T11:36:02;33.50;71.90
26947;DHT22;14501;52.282;10.560;2022-08-14T11:38:43;33.30;72.20
26947;DHT22;14501;52.282;10.560;2022-08-14T11:41:11;33.10;72.10
26947;DHT22;14501;52.282;10.560;2022-08-14T11:43:41;33.10;72.80
26947;DHT22;14501;52.282;10.560;2022-08-14T11:46:08;33.10;73.50
26947;DHT22;14501;52.282;10.560;2022-08-14T11:48:48;33.30;72.90
26947;DHT22;14501;52.282;10.560;2022-08-14T11:51:17;33.50;72.50
26947;DHT22;14501;52.282;10.560;2022-08-14T11:53:53;33.90;71.70
26947;DHT22;14501;52.282;10.560;2022-08-14T11:56:19;34.00;72.10
26947;DHT22;14501;52.282;10.560;2022-08-14T11:58:50;34.30;72.00
26947;DHT22;14501;52.282;10.560;2022-08-14T12:01:24;34.80;71.30
26947;DHT22;14501;52.282;10.560;2022-08-14T12:03:52;35.40;70.50
26947;DHT22;14501;52.282;10.560;2022-08-14T12:06:20;35.40;68.70
26947;DHT22;14501;52.282;10.560;2022-08-14T12:08:46;35.40;69.20
26947;DHT22;14501;52.282;10.560;2022-08-14T12:11:15;35.90;68.40
26947;DHT22;14501;52.282;10.560;2022-08-14T12:13:42;36.00;70.00
26947;DHT22;14501;52.282;10.560;2022-08-14T12:16:09;36.10;68.00
26947;DHT22;14501;52.282;10.560;2022-08-14T12:18:41;35.70;68.70
26947;DHT22;14501;52.282;10.560;2022-08-14T12:21:23;35.20;69.70
26947;DHT22;14501;52.282;10.560;2022-08-14T12:26:27;35.30;69.40
26947;DHT22;14501;52.282;10.560;2022-08-14T12:29:14;35.10;68.90
26947;DHT22;14501;52.282;10.560;2022-08-14T12:31:42;35.30;69.00
26947;DHT22;14501;52.282;10.560;2022-08-14T12:34:11;34.90;69.00
26947;DHT22;14501;52.282;10.560;2022-08-14T12:36:37;34.90;69.70
26947;DHT22;14501;52.282;10.560;2022-08-14T12:39:15;34.70;68.30
26947;DHT22;14501;52.282;10.560;2022-08-14T12:41:52;34.50;68.50
26947;DHT22;14501;52.282;10.560;2022-08-14T12:44:31;34.30;68.30
26947;DHT22;14501;52.282;10.560;2022-08-14T12:47:09;34.20;68.10
26947;DHT22;14501;52.282;10.560;2022-08-14T12:49:37;34.40;68.30
26947;DHT22;14501;52.282;10.560;2022-08-14T12:52:03;34.60;66.80
26947;DHT22;14501;52.282;10.560;2022-08-14T12:54:32;34.50;67.50
26947;DHT22;14501;52.282;10.560;2022-08-14T12:57:11;34.60;67.80
26947;DHT22;14501;52.282;10.560;2022-08-14T12:59:38;34.50;67.90
26947;DHT22;14501;52.282;10.560;2022-08-14T13:02:04;34.60;67.90
26947;DHT22;14501;52.282;10.560;2022-08-14T13:04:30;34.80;68.40
26947;DHT22;14501;52.282;10.560;2022-08-14T13:07:01;34.90;67.10
26947;DHT22;14501;52.282;10.560;2022-08-14T13:09:33;34.80;68.40
26947;DHT22;14501;52.282;10.560;2022-08-14T13:12:02;34.40;67.20
26947;DHT22;14501;52.282;10.560;2022-08-14T13:14:30;33.70;68.60
26947;DHT22;14501;52.282;10.560;2022-08-14T13:16:58;33.60;69.90
26947;DHT22;14501;52.282;10.560;2022-08-14T13:19:27;33.50;68.60
26947;DHT22;14501;52.282;10.560;2022-08-14T13:21:55;33.50;68.30
26947;DHT22;14501;52.282;10.560;2022-08-14T13:24:22;33.50;68.80
26947;DHT22;14501;52.282;10.560;2022-08-14T13:26:50;33.40;69.20
26947;DHT22;14501;52.282;10.560;2022-08-14T13:29:21;33.20;69.10
26947;DHT22;14501;52.282;10.560;2022-08-14T13:31:51;32.70;69.50
26947;DHT22;14501;52.282;10.560;2022-08-14T13:34:23;32.70;70.00
26947;DHT22;14501;52.282;10.560;2022-08-14T13:36:50;32.80;70.00
26947;DHT22;14501;52.282;10.560;2022-08-14T13:39:18;33.10;70.30
26947;DHT22;14501;52.282;10.560;2022-08-14T13:41:44;33.40;70.30
26947;DHT22;14501;52.282;10.560;2022-08-14T13:44:12;33.40;69.50
26947;DHT22;14501;52.282;10.560;2022-08-14T13:46:42;33.30;69.10
26947;DHT22;14501;52.282;10.560;2022-08-14T13:49:11;33.40;69.20
26947;DHT22;14501;52.282;10.560;2022-08-14T13:51:40;33.70;69.90
26947;DHT22;14501;52.282;10.560;2022-08-14T13:54:08;34.10;69.90
26947;DHT22;14501;52.282;10.560;2022-08-14T13:56:38;34.40;69.00
26947;DHT22;14501;52.282;10.560;2022-08-14T13:59:05;34.60;68.80
26947;DHT22;14501;52.282;10.560;2022-08-14T14:01:31;34.70;68.10
26947;DHT22;14501;52.282;10.560;2022-08-14T14:03:59;34.70;67.70
26947;DHT22;14501;52.282;10.560;2022-08-14T14:06:25;34.60;68.30
26947;DHT22;14501;52.282;10.560;2022-08-14T14:08:54;34.30;68.60
26947;DHT22;14501;52.282;10.560;2022-08-14T14:11:20;34.10;69.20
26947;DHT22;14501;52.282;10.560;2022-08-14T14:13:53;33.80;69.30
26947;DHT22;14501;52.282;10.560;2022-08-14T14:16:20;33.50;69.80
26947;DHT22;14501;52.282;10.560;2022-08-14T14:18:51;33.30;70.50
26947;DHT22;14501;52.282;10.560;2022-08-14T14:21:22;33.20;70.90
26947;DHT22;14501;52.282;10.560;2022-08-14T14:23:49;33.00;71.80
26947;DHT22;14501;52.282;10.560;2022-08-14T14:26:17;32.70;71.80
26947;DHT22;14501;52.282;10.560;2022-08-14T14:28:46;32.50;72.50
26947;DHT22;14501;52.282;10.560;2022-08-14T14:31:24;32.30;72.10
26947;DHT22;14501;52.282;10.560;2022-08-14T14:33:51;32.10;72.80
26947;DHT22;14501;52.282;10.560;2022-08-14T14:36:22;32.00;73.30
26947;DHT22;14501;52.282;10.560;2022-08-14T14:38:52;31.70;73.10
26947;DHT22;14501;52.282;10.560;2022-08-14T14:41:20;31.70;73.80
26947;DHT22;14501;52.282;10.560;2022-08-14T14:43:48;31.80;74.10
26947;DHT22;14501;52.282;10.560;2022-08-14T14:46:19;32.10;72.60
26947;DHT22;14501;52.282;10.560;2022-08-14T14:48:46;32.20;72.40
26947;DHT22;14501;52.282;10.560;2022-08-14T14:51:13;32.20;71.70
26947;DHT22;14501;52.282;10.560;2022-08-14T14:53:42;32.10;71.70
26947;DHT22;14501;52.282;10.560;2022-08-14T14:56:08;32.00;72.10
26947;DHT22;14501;52.282;10.560;2022-08-14T14:58:36;31.90;72.90
26947;DHT22;14501;52.282;10.560;2022-08-14T15:01:03;31.80;72.40
26947;DHT22;14501;52.282;10.560;2022-08-14T15:03:29;31.70;71.90
26947;DHT22;14501;52.282;10.560;2022-08-14T15:05:55;31.60;72.00
26947;DHT22;14501;52.282;10.560;2022-08-14T15:08:21;31.70;71.90
26947;DHT22;14501;52.282;10.560;2022-08-14T15:10:47;31.80;71.90
26947;DHT22;14501;52.282;10.560;2022-08-14T15:13:13;31.90;70.40
26947;DHT22;14501;52.282;10.560;2022-08-14T15:15:39;31.80;70.60
26947;DHT22;14501;52.282;10.560;2022-08-14T15:18:06;31.80;70.70
26947;DHT22;14501;52.282;10.560;2022-08-14T15:20:32;31.80;70.10
26947;DHT22;14501;52.282;10.560;2022-08-14T15:22:58;31.80;70.10
26947;DHT22;14501;52.282;10.560;2022-08-14T15:25:25;31.90;70.40
26947;DHT22;14501;52.282;10.560;2022-08-14T15:27:54;31.80;70.00
26947;DHT22;14501;52.282;10.560;2022-08-14T15:30:19;31.80;70.10
26947;DHT22;14501;52.282;10.560;2022-08-14T15:32:45;31.90;70.30
26947;DHT22;14501;52.282;10.560;2022-08-14T15:35:10;31.90;70.20
26947;DHT22;14501;52.282;10.560;2022-08-14T15:37:36;32.00;70.50
26947;DHT22;14501;52.282;10.560;2022-08-14T15:40:03;32.10;70.40
26947;DHT22;14501;52.282;10.560;2022-08-14T15:42:29;32.20;70.00
26947;DHT22;14501;52.282;10.560;2022-08-14T15:44:56;32.20;69.90
26947;DHT22;14501;52.282;10.560;2022-08-14T15:47:22;32.40;69.20
26947;DHT22;14501;52.282;10.560;2022-08-14T15:49:48;32.40;70.00
26947;DHT22;14501;52.282;10.560;2022-08-14T15:52:14;32.40;70.10
26947;DHT22;14501;52.282;10.560;2022-08-14T15:54:40;32.40;70.80